sensor_id;sensor_type;location;lat;lon;timestamp;pressure;altitude;pressure_sealevel;temperature;humidity
61757;BME280;57225;61.460;24.060;2023-10-08T00:01:04;98202.59;;;2.03;98.49
61757;BME280;57225;61.460;24.060;2023-10-08T00:03:50;98182.97;;;1.90;100.00
61757;BME280;57225;61.460;24.060;2023-10-08T00:06:35;98212.44;;;2.00;100.00
61757;BME280;57225;61.460;24.060;2023-10-08T00:09:20;98226.16;;;2.00;100.00
61757;BME280;57225;61.460;24.060;2023-10-08T00:12:05;98214.38;;;2.00;100.00
61757;BME280;57225;61.460;24.060;2023-10-08T00:14:51;98212.03;;;1.98;100.00
61757;BME280;57225;61.460;24.060;2023-10-08T00:17:38;98232.81;;;1.99;100.00
61757;BME280;57225;61.460;24.060;2023-10-08T00:20:23;98220.28;;;2.02;100.00
61757;BME280;57225;61.460;24.060;2023-10-08T00:23:13;98206.53;;;1.91;100.00
61757;BME280;57225;61.460;24.060;2023-10-08T00:25:59;98227.72;;;1.98;100.00
61757;BME280;57225;61.460;24.060;2023-10-08T00:28:48;98219.09;;;1.96;100.00
61757;BME280;57225;61.460;24.060;2023-10-08T00:31:36;98223.00;;;1.91;100.00
61757;BME280;57225;61.460;24.060;2023-10-08T00:34:25;98217.13;;;1.79;100.00
61757;BME280;57225;61.460;24.060;2023-10-08T00:37:11;98241.44;;;1.80;100.00
61757;BME280;57225;61.460;24.060;2023-10-08T00:39:58;98230.06;;;1.78;100.00
61757;BME280;57225;61.460;24.060;2023-10-08T00:42:43;98214.72;;;1.59;100.00
61757;BME280;57225;61.460;24.060;2023-10-08T00:45:29;98238.69;;;1.63;100.00
61757;BME280;57225;61.460;24.060;2023-10-08T00:48:14;98247.69;;;1.67;100.00
61757;BME280;57225;61.460;24.060;2023-10-08T00:51:00;98252.81;;;1.68;100.00
61757;BME280;57225;61.460;24.060;2023-10-08T00:54:06;98250.44;;;1.56;100.00
61757;BME280;57225;61.460;24.060;2023-10-08T00:56:52;98262.56;;;1.55;100.00
61757;BME280;57225;61.460;24.060;2023-10-08T00:59:37;98244.13;;;1.52;100.00
61757;BME280;57225;61.460;24.060;2023-10-08T01:02:30;98262.94;;;1.46;100.00
61757;BME280;57225;61.460;24.060;2023-10-08T01:05:39;98249.59;;;1.38;100.00
61757;BME280;57225;61.460;24.060;2023-10-08T01:08:32;98247.22;;;1.26;100.00
61757;BME280;57225;61.460;24.060;2023-10-08T01:11:36;98281.34;;;1.32;100.00
61757;BME280;57225;61.460;24.060;2023-10-08T01:14:33;98274.69;;;1.33;100.00
61757;BME280;57225;61.460;24.060;2023-10-08T01:17:18;98289.53;;;1.28;100.00
61757;BME280;57225;61.460;24.060;2023-10-08T01:20:04;98265.16;;;1.05;100.00
61757;BME280;57225;61.460;24.060;2023-10-08T01:23:10;98280.81;;;1.08;100.00
61757;BME280;57225;61.460;24.060;2023-10-08T01:26:00;98282.78;;;1.04;100.00
61757;BME280;57225;61.460;24.060;2023-10-08T01:28:58;98274.47;;;0.87;100.00
61757;BME280;57225;61.460;24.060;2023-10-08T01:31:47;98292.16;;;1.00;100.00
61757;BME280;57225;61.460;24.060;2023-10-08T01:34:37;98293.28;;;0.92;100.00
61757;BME280;57225;61.460;24.060;2023-10-08T01:37:23;98294.44;;;0.87;100.00
61757;BME280;57225;61.460;24.060;2023-10-08T01:40:08;98296.41;;;0.87;100.00
61757;BME280;57225;61.460;24.060;2023-10-08T01:42:52;98312.06;;;0.90;100.00
61757;BME280;57225;61.460;24.060;2023-10-08T01:45:37;98315.97;;;0.85;100.00
61757;BME280;57225;61.460;24.060;2023-10-08T01:48:26;98311.22;;;0.78;100.00
61757;BME280;57225;61.460;24.060;2023-10-08T01:51:22;98311.97;;;0.72;100.00
61757;BME280;57225;61.460;24.060;2023-10-08T01:54:13;98326.06;;;0.70;100.00
61757;BME280;57225;61.460;24.060;2023-10-08T01:57:04;98323.72;;;0.69;100.00
61757;BME280;57225;61.460;24.060;2023-10-08T01:59:49;98315.38;;;0.55;100.00
61757;BME280;57225;61.460;24.060;2023-10-08T02:02:34;98323.22;;;0.56;100.00
61757;BME280;57225;61.460;24.060;2023-10-08T02:05:18;98332.25;;;0.64;100.00
61757;BME280;57225;61.460;24.060;2023-10-08T02:08:03;98327.91;;;0.56;100.00
61757;BME280;57225;61.460;24.060;2023-10-08T02:10:47;98332.63;;;0.55;100.00
61757;BME280;57225;61.460;24.060;2023-10-08T02:13:32;98347.47;;;0.54;100.00
61757;BME280;57225;61.460;24.060;2023-10-08T02:16:19;98338.44;;;0.50;100.00
61757;BME280;57225;61.460;24.060;2023-10-08T02:19:03;98339.97;;;0.48;100.00
61757;BME280;57225;61.460;24.060;2023-10-08T02:21:47;98342.00;;;0.58;100.00
61757;BME280;57225;61.460;24.060;2023-10-08T02:24:32;98339.63;;;0.53;100.00
61757;BME280;57225;61.460;24.060;2023-10-08T02:27:17;98350.28;;;0.61;100.00
61757;BME280;57225;61.460;24.060;2023-10-08T02:30:01;98357.28;;;0.59;100.00
61757;BME280;57225;61.460;24.060;2023-10-08T02:32:47;98352.97;;;0.58;100.00
61757;BME280;57225;61.460;24.060;2023-10-08T02:35:33;98351.44;;;0.64;100.00
61757;BME280;57225;61.460;24.060;2023-10-08T02:38:18;98363.63;;;0.70;100.00
61757;BME280;57225;61.460;24.060;2023-10-08T02:41:02;98358.16;;;0.70;100.00
61757;BME280;57225;61.460;24.060;2023-10-08T02:43:50;98359.69;;;0.64;100.00
61757;BME280;57225;61.460;24.060;2023-10-08T02:49:47;98370.69;;;0.71;100.00
61757;BME280;57225;61.460;24.060;2023-10-08T02:52:36;98378.19;;;0.74;100.00
61757;BME280;57225;61.460;24.060;2023-10-08T02:55:20;98380.91;;;0.74;100.00
61757;BME280;57225;61.460;24.060;2023-10-08T02:58:20;98381.72;;;0.78;100.00
61757;BME280;57225;61.460;24.060;2023-10-08T03:01:04;98387.25;;;0.85;100.00
61757;BME280;57225;61.460;24.060;2023-10-08T03:03:48;98388.03;;;0.82;100.00
61757;BME280;57225;61.460;24.060;2023-10-08T03:06:33;98395.97;;;0.94;100.00
61757;BME280;57225;61.460;24.060;2023-10-08T03:09:19;98403.41;;;0.97;100.00
61757;BME280;57225;61.460;24.060;2023-10-08T03:12:16;98410.06;;;0.96;100.00
61757;BME280;57225;61.460;24.060;2023-10-08T03:15:02;98406.13;;;0.94;100.00
61757;BME280;57225;61.460;24.060;2023-10-08T03:18:13;98410.78;;;0.90;100.00
61757;BME280;57225;61.460;24.060;2023-10-08T03:21:04;98420.28;;;0.99;100.00
61757;BME280;57225;61.460;24.060;2023-10-08T03:23:50;98417.47;;;0.92;100.00
61757;BME280;57225;61.460;24.060;2023-10-08T03:26:34;98435.53;;;0.97;100.00
61757;BME280;57225;61.460;24.060;2023-10-08T03:29:19;98413.56;;;0.93;100.00
61757;BME280;57225;61.460;24.060;2023-10-08T03:32:04;98430.88;;;1.01;100.00
61757;BME280;57225;61.460;24.060;2023-10-08T03:34:50;98439.16;;;1.11;100.00
61757;BME280;57225;61.460;24.060;2023-10-08T03:37:38;98457.16;;;1.09;100.00
61757;BME280;57225;61.460;24.060;2023-10-08T03:40:29;98440.25;;;1.00;100.00
61757;BME280;57225;61.460;24.060;2023-10-08T03:43:27;98454.75;;;1.00;100.00
61757;BME280;57225;61.460;24.060;2023-10-08T03:46:32;98461.03;;;1.01;100.00
61757;BME280;57225;61.460;24.060;2023-10-08T03:49:23;98450.81;;;0.98;100.00
61757;BME280;57225;61.460;24.060;2023-10-08T03:52:08;98453.56;;;1.01;100.00
61757;BME280;57225;61.460;24.060;2023-10-08T03:54:52;98469.28;;;1.04;100.00
61757;BME280;57225;61.460;24.060;2023-10-08T03:57:51;98474.78;;;1.04;100.00
61757;BME280;57225;61.460;24.060;2023-10-08T04:00:42;98465.69;;;0.97;100.00
61757;BME280;57225;61.460;24.060;2023-10-08T04:03:29;98480.63;;;1.03;100.00
61757;BME280;57225;61.460;24.060;2023-10-08T04:06:34;98483.41;;;1.06;100.00
61757;BME280;57225;61.460;24.060;2023-10-08T04:09:18;98482.19;;;1.00;100.00
61757;BME280;57225;61.460;24.060;2023-10-08T04:12:03;98497.88;;;1.03;100.00
61757;BME280;57225;61.460;24.060;2023-10-08T04:14:51;98512.75;;;1.02;100.00
61757;BME280;57225;61.460;24.060;2023-10-08T04:17:39;98522.56;;;1.03;100.00
61757;BME280;57225;61.460;24.060;2023-10-08T04:20:35;98530.78;;;1.03;100.00
61757;BME280;57225;61.460;24.060;2023-10-08T04:23:22;98532.00;;;1.06;100.00
61757;BME280;57225;61.460;24.060;2023-10-08T04:26:07;98520.53;;;0.97;100.00
61757;BME280;57225;61.460;24.060;2023-10-08T04:28:56;98540.59;;;1.04;100.00
61757;BME280;57225;61.460;24.060;2023-10-08T04:31:46;98548.84;;;1.08;100.00
61757;BME280;57225;61.460;24.060;2023-10-08T04:34:38;98544.94;;;1.05;100.00
61757;BME280;57225;61.460;24.060;2023-10-08T04:37:28;98561.03;;;1.10;100.00
61757;BME280;57225;61.460;24.060;2023-10-08T04:40:17;98554.81;;;1.13;100.00
61757;BME280;57225;61.460;24.060;2023-10-08T04:43:01;98552.81;;;1.10;100.00
61757;BME280;57225;61.460;24.060;2023-10-08T04:45:46;98562.19;;;1.09;100.00
61757;BME280;57225;61.460;24.060;2023-10-08T04:48:31;98548.38;;;0.99;100.00
61757;BME280;57225;61.460;24.060;2023-10-08T04:51:20;98581.78;;;1.08;100.00
61757;BME280;57225;61.460;24.060;2023-10-08T04:54:06;98570.78;;;1.08;100.00
61757;BME280;57225;61.460;24.060;2023-10-08T04:56:51;98577.47;;;1.07;100.00
61757;BME280;57225;61.460;24.060;2023-10-08T04:59:37;98568.81;;;1.05;100.00
61757;BME280;57225;61.460;24.060;2023-10-08T05:02:22;98589.59;;;1.06;100.00
61757;BME280;57225;61.460;24.060;2023-10-08T05:05:32;98588.03;;;1.08;100.00
61757;BME280;57225;61.460;24.060;2023-10-08T05:08:37;98594.72;;;1.07;100.00
61757;BME280;57225;61.460;24.060;2023-10-08T05:11:52;98590.03;;;1.11;100.00
61757;BME280;57225;61.460;24.060;2023-10-08T05:14:37;98603.75;;;1.11;100.00
61757;BME280;57225;61.460;24.060;2023-10-08T05:17:29;98601.44;;;1.13;100.00
61757;BME280;57225;61.460;24.060;2023-10-08T05:20:29;98603.00;;;1.14;100.00
61757;BME280;57225;61.460;24.060;2023-10-08T05:23:33;98611.66;;;1.16;100.00
61757;BME280;57225;61.460;24.060;2023-10-08T05:26:40;98627.75;;;1.21;100.00
61757;BME280;57225;61.460;24.060;2023-10-08T05:29:33;98641.53;;;1.25;100.00
61757;BME280;57225;61.460;24.060;2023-10-08T05:32:36;98630.09;;;1.19;100.00
61757;BME280;57225;61.460;24.060;2023-10-08T05:35:36;98643.94;;;1.34;100.00
61757;BME280;57225;61.460;24.060;2023-10-08T05:38:26;98639.19;;;1.27;100.00
61757;BME280;57225;61.460;24.060;2023-10-08T05:41:13;98634.53;;;1.31;100.00
61757;BME280;57225;61.460;24.060;2023-10-08T05:44:31;98654.19;;;1.37;100.00
61757;BME280;57225;61.460;24.060;2023-10-08T05:47:27;98669.06;;;1.36;100.00
61757;BME280;57225;61.460;24.060;2023-10-08T05:50:17;98663.56;;;1.36;100.00
61757;BME280;57225;61.460;24.060;2023-10-08T05:53:02;98672.22;;;1.38;100.00
61757;BME280;57225;61.460;24.060;2023-10-08T05:56:04;98676.59;;;1.46;100.00
61757;BME280;57225;61.460;24.060;2023-10-08T05:59:00;98662.50;;;1.44;100.00
61757;BME280;57225;61.460;24.060;2023-10-08T06:01:58;98666.75;;;1.41;100.00
61757;BME280;57225;61.460;24.060;2023-10-08T06:04:52;98684.53;;;1.54;100.00
61757;BME280;57225;61.460;24.060;2023-10-08T06:07:55;98686.91;;;1.56;100.00
61757;BME280;57225;61.460;24.060;2023-10-08T06:10:39;98699.44;;;1.53;100.00
61757;BME280;57225;61.460;24.060;2023-10-08T06:13:24;98714.00;;;1.61;100.00
61757;BME280;57225;61.460;24.060;2023-10-08T06:16:27;98718.75;;;1.64;100.00
61757;BME280;57225;61.460;24.060;2023-10-08T06:19:25;98724.28;;;1.68;100.00
61757;BME280;57225;61.460;24.060;2023-10-08T06:22:10;98738.03;;;1.71;100.00
61757;BME280;57225;61.460;24.060;2023-10-08T06:24:54;98733.72;;;1.70;100.00
61757;BME280;57225;61.460;24.060;2023-10-08T06:27:58;98749.06;;;1.75;100.00
61757;BME280;57225;61.460;24.060;2023-10-08T06:30:42;98747.19;;;1.82;100.00
61757;BME280;57225;61.460;24.060;2023-10-08T06:33:27;98755.44;;;1.86;100.00
61757;BME280;57225;61.460;24.060;2023-10-08T06:36:17;98756.66;;;1.88;100.00
61757;BME280;57225;61.460;24.060;2023-10-08T06:39:07;98771.13;;;1.85;100.00
61757;BME280;57225;61.460;24.060;2023-10-08T06:41:56;98782.97;;;1.89;100.00
61757;BME280;57225;61.460;24.060;2023-10-08T06:44:44;98782.53;;;1.87;100.00
61757;BME280;57225;61.460;24.060;2023-10-08T06:47:30;98792.44;;;1.95;100.00
61757;BME280;57225;61.460;24.060;2023-10-08T06:50:16;98800.28;;;1.97;100.00
61757;BME280;57225;61.460;24.060;2023-10-08T06:53:05;98812.13;;;2.01;100.00
61757;BME280;57225;61.460;24.060;2023-10-08T06:55:52;98807.34;;;1.94;100.00
61757;BME280;57225;61.460;24.060;2023-10-08T06:58:41;98815.56;;;1.94;100.00
61757;BME280;57225;61.460;24.060;2023-10-08T07:01:37;98825.53;;;2.10;100.00
61757;BME280;57225;61.460;24.060;2023-10-08T07:04:24;98836.13;;;2.08;100.00
61757;BME280;57225;61.460;24.060;2023-10-08T07:07:09;98840.41;;;2.05;100.00
61757;BME280;57225;61.460;24.060;2023-10-08T07:09:53;98853.00;;;2.10;100.00
61757;BME280;57225;61.460;24.060;2023-10-08T07:12:40;98840.78;;;2.03;100.00
61757;BME280;57225;61.460;24.060;2023-10-08T07:15:26;98853.34;;;2.05;100.00
61757;BME280;57225;61.460;24.060;2023-10-08T07:18:11;98862.09;;;2.14;100.00
61757;BME280;57225;61.460;24.060;2023-10-08T07:20:58;98872.38;;;2.24;100.00
61757;BME280;57225;61.460;24.060;2023-10-08T07:23:46;98865.72;;;2.25;100.00
61757;BME280;57225;61.460;24.060;2023-10-08T07:26:53;98861.44;;;2.27;100.00
61757;BME280;57225;61.460;24.060;2023-10-08T07:29:39;98877.16;;;2.30;100.00
61757;BME280;57225;61.460;24.060;2023-10-08T07:32:24;98889.38;;;2.33;100.00
61757;BME280;57225;61.460;24.060;2023-10-08T07:35:09;98900.00;;;2.38;100.00
61757;BME280;57225;61.460;24.060;2023-10-08T07:38:02;98897.56;;;2.29;100.00
61757;BME280;57225;61.460;24.060;2023-10-08T07:40:47;98907.44;;;2.34;100.00
61757;BME280;57225;61.460;24.060;2023-10-08T07:43:32;98923.59;;;2.39;100.00
61757;BME280;57225;61.460;24.060;2023-10-08T07:46:19;98904.69;;;2.34;100.00
61757;BME280;57225;61.460;24.060;2023-10-08T07:49:03;98918.03;;;2.32;100.00
61757;BME280;57225;61.460;24.060;2023-10-08T07:51:49;98931.94;;;2.50;100.00
61757;BME280;57225;61.460;24.060;2023-10-08T07:54:36;98956.31;;;2.51;100.00
61757;BME280;57225;61.460;24.060;2023-10-08T07:57:21;98955.97;;;2.56;100.00
61757;BME280;57225;61.460;24.060;2023-10-08T08:00:10;98962.28;;;2.60;100.00
61757;BME280;57225;61.460;24.060;2023-10-08T08:03:07;98955.22;;;2.59;100.00
61757;BME280;57225;61.460;24.060;2023-10-08T08:05:52;98977.22;;;2.59;100.00
61757;BME280;57225;61.460;24.060;2023-10-08T08:08:38;98989.78;;;2.60;100.00
61757;BME280;57225;61.460;24.060;2023-10-08T08:11:23;98991.00;;;2.63;100.00
61757;BME280;57225;61.460;24.060;2023-10-08T08:14:10;98980.34;;;2.58;100.00
61757;BME280;57225;61.460;24.060;2023-10-08T08:16:54;98989.75;;;2.57;100.00
61757;BME280;57225;61.460;24.060;2023-10-08T08:19:43;99001.63;;;2.64;100.00
61757;BME280;57225;61.460;24.060;2023-10-08T08:22:28;99014.97;;;2.62;100.00
61757;BME280;57225;61.460;24.060;2023-10-08T08:25:19;99016.53;;;2.63;100.00
61757;BME280;57225;61.460;24.060;2023-10-08T08:28:27;99028.34;;;2.64;100.00
61757;BME280;57225;61.460;24.060;2023-10-08T08:31:12;99014.94;;;2.59;100.00
61757;BME280;57225;61.460;24.060;2023-10-08T08:33:59;99035.81;;;2.67;100.00
61757;BME280;57225;61.460;24.060;2023-10-08T08:36:44;99048.47;;;2.71;100.00
61757;BME280;57225;61.460;24.060;2023-10-08T08:39:32;99053.13;;;2.67;100.00
61757;BME280;57225;61.460;24.060;2023-10-08T08:42:22;99055.13;;;2.70;100.00
61757;BME280;57225;61.460;24.060;2023-10-08T08:45:09;99068.53;;;2.75;100.00
61757;BME280;57225;61.460;24.060;2023-10-08T08:47:55;99078.72;;;2.71;100.00
61757;BME280;57225;61.460;24.060;2023-10-08T08:50:39;99072.53;;;2.81;100.00
61757;BME280;57225;61.460;24.060;2023-10-08T08:53:24;99085.94;;;2.83;100.00
61757;BME280;57225;61.460;24.060;2023-10-08T08:56:10;99091.88;;;2.89;100.00
61757;BME280;57225;61.460;24.060;2023-10-08T08:58:57;99103.03;;;3.03;100.00
61757;BME280;57225;61.460;24.060;2023-10-08T09:01:44;99099.88;;;3.01;100.00
61757;BME280;57225;61.460;24.060;2023-10-08T09:04:32;99112.16;;;3.10;100.00
61757;BME280;57225;61.460;24.060;2023-10-08T09:07:20;99113.72;;;3.08;100.00
61757;BME280;57225;61.460;24.060;2023-10-08T09:10:08;99138.13;;;3.09;100.00
61757;BME280;57225;61.460;24.060;2023-10-08T09:12:57;99143.56;;;3.06;100.00
61757;BME280;57225;61.460;24.060;2023-10-08T09:15:46;99147.63;;;3.15;100.00
61757;BME280;57225;61.460;24.060;2023-10-08T09:18:31;99154.63;;;3.09;100.00
61757;BME280;57225;61.460;24.060;2023-10-08T09:21:18;99156.19;;;3.10;100.00
61757;BME280;57225;61.460;24.060;2023-10-08T09:24:03;99164.94;;;3.16;100.00
61757;BME280;57225;61.460;24.060;2023-10-08T09:26:52;99177.22;;;3.26;100.00
61757;BME280;57225;61.460;24.060;2023-10-08T09:29:40;99170.47;;;3.23;100.00
61757;BME280;57225;61.460;24.060;2023-10-08T09:32:25;99185.66;;;3.43;100.00
61757;BME280;57225;61.460;24.060;2023-10-08T09:35:10;99183.38;;;3.52;100.00
61757;BME280;57225;61.460;24.060;2023-10-08T09:37:58;99198.78;;;3.57;100.00
61757;BME280;57225;61.460;24.060;2023-10-08T09:40:42;99196.00;;;3.53;100.00
61757;BME280;57225;61.460;24.060;2023-10-08T09:43:28;99175.47;;;3.47;100.00
61757;BME280;57225;61.460;24.060;2023-10-08T09:46:21;99211.47;;;3.69;100.00
61757;BME280;57225;61.460;24.060;2023-10-08T09:49:12;99210.75;;;3.75;100.00
61757;BME280;57225;61.460;24.060;2023-10-08T09:51:59;99211.53;;;3.76;100.00
61757;BME280;57225;61.460;24.060;2023-10-08T09:54:49;99219.00;;;3.72;100.00
61757;BME280;57225;61.460;24.060;2023-10-08T09:57:37;99215.75;;;3.62;100.00
61757;BME280;57225;61.460;24.060;2023-10-08T10:00:22;99226.84;;;3.70;100.00
61757;BME280;57225;61.460;24.060;2023-10-08T10:03:15;99234.69;;;3.68;100.00
61757;BME280;57225;61.460;24.060;2023-10-08T10:05:59;99231.19;;;3.71;100.00
61757;BME280;57225;61.460;24.060;2023-10-08T10:08:45;99241.13;;;3.79;100.00
61757;BME280;57225;61.460;24.060;2023-10-08T10:11:32;99247.59;;;3.97;100.00
61757;BME280;57225;61.460;24.060;2023-10-08T10:14:16;99252.66;;;3.91;100.00
61757;BME280;57225;61.460;24.060;2023-10-08T10:17:10;99268.84;;;3.96;100.00
61757;BME280;57225;61.460;24.060;2023-10-08T10:19:57;99267.25;;;3.95;100.00
61757;BME280;57225;61.460;24.060;2023-10-08T10:22:44;99264.78;;;3.87;100.00
61757;BME280;57225;61.460;24.060;2023-10-08T10:25:34;99282.25;;;3.98;100.00
61757;BME280;57225;61.460;24.060;2023-10-08T10:28:26;99287.69;;;3.91;100.00
61757;BME280;57225;61.460;24.060;2023-10-08T10:31:19;99291.75;;;4.04;100.00
61757;BME280;57225;61.460;24.060;2023-10-08T10:34:11;99296.06;;;4.05;100.00
61757;BME280;57225;61.460;24.060;2023-10-08T10:36:58;99301.28;;;4.10;100.00
61757;BME280;57225;61.460;24.060;2023-10-08T10:39:59;99316.03;;;4.32;100.00
61757;BME280;57225;61.460;24.060;2023-10-08T10:42:47;99321.25;;;4.44;100.00
61757;BME280;57225;61.460;24.060;2023-10-08T10:45:37;99310.13;;;4.30;100.00
61757;BME280;57225;61.460;24.060;2023-10-08T10:48:28;99314.94;;;4.43;100.00
61757;BME280;57225;61.460;24.060;2023-10-08T10:51:19;99341.84;;;4.57;100.00
61757;BME280;57225;61.460;24.060;2023-10-08T10:54:04;99349.75;;;4.59;100.00
61757;BME280;57225;61.460;24.060;2023-10-08T10:56:53;99350.56;;;4.59;100.00
61757;BME280;57225;61.460;24.060;2023-10-08T10:59:52;99348.16;;;4.58;100.00
61757;BME280;57225;61.460;24.060;2023-10-08T11:02:38;99360.00;;;4.58;100.00
61757;BME280;57225;61.460;24.060;2023-10-08T11:05:27;99369.44;;;4.54;99.27
61757;BME280;57225;61.460;24.060;2023-10-08T11:08:16;99372.56;;;4.52;99.36
61757;BME280;57225;61.460;24.060;2023-10-08T11:11:03;99384.31;;;4.45;99.29
61757;BME280;57225;61.460;24.060;2023-10-08T11:14:02;99387.59;;;4.55;97.26
61757;BME280;57225;61.460;24.060;2023-10-08T11:16:47;99395.50;;;4.60;97.50
61757;BME280;57225;61.460;24.060;2023-10-08T11:19:32;99395.22;;;4.75;94.51
61757;BME280;57225;61.460;24.060;2023-10-08T11:22:18;99404.31;;;4.76;94.91
61757;BME280;57225;61.460;24.060;2023-10-08T11:25:23;99410.69;;;4.87;94.89
61757;BME280;57225;61.460;24.060;2023-10-08T11:28:12;99410.69;;;4.87;94.49
61757;BME280;57225;61.460;24.060;2023-10-08T11:30:57;99416.19;;;4.80;94.00
61757;BME280;57225;61.460;24.060;2023-10-08T11:33:49;99413.88;;;4.85;94.67
61757;BME280;57225;61.460;24.060;2023-10-08T11:36:41;99418.72;;;5.03;92.26
61757;BME280;57225;61.460;24.060;2023-10-08T11:39:40;99421.81;;;4.94;92.44
61757;BME280;57225;61.460;24.060;2023-10-08T11:42:29;99428.22;;;5.05;91.85
61757;BME280;57225;61.460;24.060;2023-10-08T11:45:16;99418.91;;;5.28;92.80
61757;BME280;57225;61.460;24.060;2023-10-08T11:48:33;99425.97;;;5.21;91.45
61757;BME280;57225;61.460;24.060;2023-10-08T11:51:22;99434.66;;;5.23;89.69
61757;BME280;57225;61.460;24.060;2023-10-08T11:54:07;99431.91;;;5.23;90.51
61757;BME280;57225;61.460;24.060;2023-10-08T11:56:56;99444.56;;;5.32;90.77
61757;BME280;57225;61.460;24.060;2023-10-08T11:59:40;99440.28;;;5.38;90.16
61757;BME280;57225;61.460;24.060;2023-10-08T12:02:25;99452.22;;;5.52;89.03
61757;BME280;57225;61.460;24.060;2023-10-08T12:05:10;99452.22;;;5.52;90.55
61757;BME280;57225;61.460;24.060;2023-10-08T12:08:03;99464.06;;;5.49;88.83
61757;BME280;57225;61.460;24.060;2023-10-08T12:10:48;99452.84;;;5.32;87.39
61757;BME280;57225;61.460;24.060;2023-10-08T12:13:42;99467.09;;;5.30;90.32
61757;BME280;57225;61.460;24.060;2023-10-08T12:16:32;99474.75;;;5.54;91.27
61757;BME280;57225;61.460;24.060;2023-10-08T12:19:20;99475.94;;;5.57;90.27
61757;BME280;57225;61.460;24.060;2023-10-08T12:22:06;99479.91;;;5.56;92.91
61757;BME280;57225;61.460;24.060;2023-10-08T12:24:52;99484.53;;;5.45;89.86
61757;BME280;57225;61.460;24.060;2023-10-08T12:27:37;99488.03;;;5.35;89.60
61757;BME280;57225;61.460;24.060;2023-10-08T12:30:21;99498.66;;;5.33;90.54
61757;BME280;57225;61.460;24.060;2023-10-08T12:33:14;99488.09;;;5.42;90.02
61757;BME280;57225;61.460;24.060;2023-10-08T12:36:00;99493.59;;;5.42;88.67
61757;BME280;57225;61.460;24.060;2023-10-08T12:38:54;99490.38;;;5.33;87.99
61757;BME280;57225;61.460;24.060;2023-10-08T12:41:42;99495.44;;;5.23;87.80
61757;BME280;57225;61.460;24.060;2023-10-08T12:44:37;99508.91;;;5.29;90.26
61757;BME280;57225;61.460;24.060;2023-10-08T12:47:21;99515.16;;;5.22;89.50
61757;BME280;57225;61.460;24.060;2023-10-08T12:50:07;99523.88;;;5.28;91.37
61757;BME280;57225;61.460;24.060;2023-10-08T12:52:52;99529.34;;;5.20;91.51
61757;BME280;57225;61.460;24.060;2023-10-08T12:55:39;99524.59;;;5.17;89.33
61757;BME280;57225;61.460;24.060;2023-10-08T12:58:23;99528.47;;;5.09;89.96
61757;BME280;57225;61.460;24.060;2023-10-08T13:01:15;99533.16;;;5.05;89.28
61757;BME280;57225;61.460;24.060;2023-10-08T13:04:01;99537.84;;;5.01;89.69
61757;BME280;57225;61.460;24.060;2023-10-08T13:06:50;99534.84;;;5.17;92.70
61757;BME280;57225;61.460;24.060;2023-10-08T13:09:35;99531.03;;;5.32;88.79
61757;BME280;57225;61.460;24.060;2023-10-08T13:12:20;99541.75;;;5.37;87.86
61757;BME280;57225;61.460;24.060;2023-10-08T13:15:05;99540.47;;;5.28;89.61
61757;BME280;57225;61.460;24.060;2023-10-08T13:17:50;99534.13;;;5.23;89.02
61757;BME280;57225;61.460;24.060;2023-10-08T13:20:34;99542.78;;;5.25;88.18
61757;BME280;57225;61.460;24.060;2023-10-08T13:23:19;99531.97;;;5.06;87.37
61757;BME280;57225;61.460;24.060;2023-10-08T13:26:07;99553.66;;;5.04;87.89
61757;BME280;57225;61.460;24.060;2023-10-08T13:28:51;99552.00;;;4.96;89.60
61757;BME280;57225;61.460;24.060;2023-10-08T13:31:36;99554.34;;;4.94;91.18
61757;BME280;57225;61.460;24.060;2023-10-08T13:34:20;99558.34;;;5.00;92.52
61757;BME280;57225;61.460;24.060;2023-10-08T13:37:06;99567.22;;;4.79;95.17
61757;BME280;57225;61.460;24.060;2023-10-08T13:39:50;99577.00;;;4.73;97.32
61757;BME280;57225;61.460;24.060;2023-10-08T13:42:34;99579.25;;;4.64;100.00
61757;BME280;57225;61.460;24.060;2023-10-08T13:45:19;99572.69;;;4.42;99.79
61757;BME280;57225;61.460;24.060;2023-10-08T13:48:10;99576.94;;;4.36;100.00
61757;BME280;57225;61.460;24.060;2023-10-08T13:51:05;99583.59;;;4.32;100.00
61757;BME280;57225;61.460;24.060;2023-10-08T13:53:58;99597.09;;;4.40;100.00
61757;BME280;57225;61.460;24.060;2023-10-08T13:56:47;99589.16;;;4.35;100.00
61757;BME280;57225;61.460;24.060;2023-10-08T13:59:35;99608.13;;;4.40;98.65
61757;BME280;57225;61.460;24.060;2023-10-08T14:02:19;99601.03;;;4.39;97.85
61757;BME280;57225;61.460;24.060;2023-10-08T14:05:06;99618.41;;;4.43;99.02
61757;BME280;57225;61.460;24.060;2023-10-08T14:07:52;99609.63;;;4.34;96.39
61757;BME280;57225;61.460;24.060;2023-10-08T14:10:37;99619.06;;;4.33;98.35
61757;BME280;57225;61.460;24.060;2023-10-08T14:13:21;99623.00;;;4.32;99.27
61757;BME280;57225;61.460;24.060;2023-10-08T14:16:06;99626.44;;;4.26;97.17
61757;BME280;57225;61.460;24.060;2023-10-08T14:18:54;99638.72;;;4.28;97.25
61757;BME280;57225;61.460;24.060;2023-10-08T14:21:39;99644.97;;;4.25;98.14
61757;BME280;57225;61.460;24.060;2023-10-08T14:24:33;99644.97;;;4.25;95.88
61757;BME280;57225;61.460;24.060;2023-10-08T14:27:21;99647.50;;;4.11;97.25
61757;BME280;57225;61.460;24.060;2023-10-08T14:30:10;99649.00;;;4.05;95.12
61757;BME280;57225;61.460;24.060;2023-10-08T14:33:05;99644.56;;;3.97;93.70
61757;BME280;57225;61.460;24.060;2023-10-08T14:35:53;99645.41;;;4.01;91.38
61757;BME280;57225;61.460;24.060;2023-10-08T14:38:56;99642.13;;;3.92;91.88
61757;BME280;57225;61.460;24.060;2023-10-08T14:41:59;99632.50;;;3.82;91.91
61757;BME280;57225;61.460;24.060;2023-10-08T14:45:02;99664.56;;;3.94;92.88
61757;BME280;57225;61.460;24.060;2023-10-08T14:47:47;99656.94;;;3.84;92.37
61757;BME280;57225;61.460;24.060;2023-10-08T14:50:32;99666.50;;;3.90;91.49